createdAt,value
2022-12-17T00:00:10.402Z,98.48
2022-12-17T00:02:31.828Z,98.46
2022-12-17T00:04:53.306Z,98.29
2022-12-17T00:07:14.995Z,98.11
2022-12-17T00:09:36.201Z,97.74
2022-12-17T00:11:57.293Z,97.84
2022-12-17T00:14:18.520Z,97.57
2022-12-17T00:16:39.898Z,96.03
2022-12-17T00:19:01.169Z,95.99
2022-12-17T00:21:25.392Z,95.76
2022-12-17T00:23:46.644Z,95.58
2022-12-17T00:26:12.123Z,96.33
2022-12-17T00:28:33.804Z,96.31
2022-12-17T00:30:54.992Z,96.92
2022-12-17T00:33:16.222Z,96.47
2022-12-17T00:35:37.472Z,96.52
2022-12-17T00:37:58.794Z,96.26
2022-12-17T00:40:19.995Z,95.83
2022-12-17T00:42:41.316Z,95.58
2022-12-17T00:45:02.296Z,95.37
2022-12-17T00:47:24.957Z,95.85
2022-12-17T00:49:45.988Z,95.61
2022-12-17T00:52:06.972Z,96.01
2022-12-17T00:54:28.208Z,95.56
2022-12-17T00:56:49.352Z,95.63
2022-12-17T00:59:13.395Z,95.54
2022-12-17T01:01:34.835Z,94.96
2022-12-17T01:03:56.096Z,94.77
2022-12-17T01:06:22.209Z,95.26
2022-12-17T01:08:43.126Z,94.84
2022-12-17T01:11:04.185Z,95.04
2022-12-17T01:13:25.121Z,95.79
2022-12-17T01:15:46.186Z,95.50
2022-12-17T01:18:07.235Z,94.28
2022-12-17T01:20:28.812Z,94.63
2022-12-17T01:22:49.876Z,95.13
2022-12-17T01:25:11.188Z,95.74
2022-12-17T01:27:32.390Z,95.57
2022-12-17T01:29:53.350Z,95.28
2022-12-17T01:32:14.585Z,95.17
2022-12-17T01:34:35.834Z,94.21
2022-12-17T01:36:56.777Z,93.67
2022-12-17T01:39:17.677Z,94.20
2022-12-17T01:41:38.572Z,93.72
2022-12-17T01:43:59.938Z,93.67
2022-12-17T01:46:21.167Z,93.42
2022-12-17T01:48:57.125Z,93.43
2022-12-17T01:51:32.158Z,94.46
2022-12-17T01:54:00.561Z,94.32
2022-12-17T01:56:23.227Z,94.08
2022-12-17T01:58:44.132Z,93.89
2022-12-17T02:01:05.585Z,94.52
2022-12-17T02:03:38.127Z,94.52
2022-12-17T02:06:20.138Z,94.19
2022-12-17T02:08:41.095Z,94.31
2022-12-17T02:11:30.826Z,93.87
2022-12-17T02:14:00.586Z,93.69
2022-12-17T02:16:49.459Z,92.73
2022-12-17T02:19:18.494Z,93.21
2022-12-17T02:21:41.830Z,92.96
2022-12-17T02:24:15.103Z,92.97
2022-12-17T02:27:02.912Z,91.38
2022-12-17T02:29:26.629Z,92.72
2022-12-17T02:31:48.582Z,92.59
2022-12-17T02:34:10.151Z,91.43
2022-12-17T02:36:31.388Z,91.06
2022-12-17T02:39:00.548Z,90.15
2022-12-17T02:41:25.111Z,90.28
2022-12-17T02:43:47.774Z,89.63
2022-12-17T02:46:09.257Z,91.06
2022-12-17T02:48:31.345Z,91.16
2022-12-17T02:50:52.772Z,90.44
2022-12-17T02:53:17.559Z,90.10
2022-12-17T02:55:38.490Z,90.05
2022-12-17T02:57:59.585Z,90.45
2022-12-17T03:00:20.528Z,89.96
2022-12-17T03:02:41.648Z,89.97
2022-12-17T03:05:15.212Z,89.59
2022-12-17T03:07:44.289Z,88.18
2022-12-17T03:10:05.288Z,87.34
2022-12-17T03:12:26.370Z,88.04
2022-12-17T03:14:47.505Z,86.77
2022-12-17T03:17:08.374Z,85.88
2022-12-17T03:19:29.703Z,85.40
2022-12-17T03:21:50.724Z,85.76
2022-12-17T03:24:12.108Z,85.35
2022-12-17T03:26:32.942Z,85.65
2022-12-17T03:28:53.735Z,85.38
2022-12-17T03:31:18.363Z,86.24
2022-12-17T03:33:39.488Z,86.67
2022-12-17T03:36:00.410Z,86.81
2022-12-17T03:38:26.948Z,87.36
2022-12-17T03:40:48.033Z,87.81
2022-12-17T03:43:09.434Z,87.81
2022-12-17T03:45:31.284Z,87.89
2022-12-17T03:47:52.180Z,87.56
2022-12-17T03:50:13.423Z,87.57
2022-12-17T03:52:36.001Z,87.68
2022-12-17T03:54:57.125Z,88.36
2022-12-17T03:57:18.089Z,88.39
2022-12-17T03:59:39.346Z,88.37
2022-12-17T04:02:00.355Z,87.83
2022-12-17T04:04:21.545Z,87.83
2022-12-17T04:06:42.779Z,87.59
2022-12-17T04:09:03.583Z,88.04
2022-12-17T04:11:25.019Z,87.70
2022-12-17T04:13:46.201Z,87.65
2022-12-17T04:16:07.672Z,87.73
2022-12-17T04:18:28.785Z,87.76
2022-12-17T04:20:49.944Z,87.75
2022-12-17T04:23:11.029Z,87.66
2022-12-17T04:25:32.295Z,88.69
2022-12-17T04:27:53.171Z,87.98
2022-12-17T04:30:14.628Z,88.25
2022-12-17T04:32:35.796Z,88.48
2022-12-17T04:34:57.216Z,88.64
2022-12-17T04:37:18.292Z,88.73
2022-12-17T04:39:39.612Z,88.51
2022-12-17T04:42:00.776Z,88.45
2022-12-17T04:44:22.276Z,88.85
2022-12-17T04:46:43.360Z,88.99
2022-12-17T04:49:04.747Z,89.09
2022-12-17T04:51:25.979Z,88.66
2022-12-17T04:54:07.073Z,88.81
2022-12-17T04:56:28.012Z,88.82
2022-12-17T04:58:49.140Z,89.13
2022-12-17T05:01:11.190Z,88.89
2022-12-17T05:03:35.064Z,88.68
2022-12-17T05:05:56.774Z,89.21
2022-12-17T05:08:18.092Z,88.81
2022-12-17T05:10:39.452Z,88.81
2022-12-17T05:13:00.501Z,89.16
2022-12-17T05:15:21.855Z,89.29
2022-12-17T05:17:42.854Z,89.66
2022-12-17T05:20:04.435Z,89.31
2022-12-17T05:22:25.788Z,89.22
2022-12-17T05:24:46.920Z,90.02
2022-12-17T05:27:07.823Z,89.36
2022-12-17T05:29:29.130Z,89.70
2022-12-17T05:31:50.422Z,89.88
2022-12-17T05:34:11.208Z,89.40
2022-12-17T05:36:32.357Z,89.27
2022-12-17T05:38:53.271Z,89.96
2022-12-17T05:41:16.657Z,89.80
2022-12-17T05:43:38.077Z,90.10
2022-12-17T05:46:00.668Z,89.98
2022-12-17T05:48:21.614Z,90.06
2022-12-17T05:50:42.502Z,89.60
2022-12-17T05:53:03.842Z,90.31
2022-12-17T05:55:25.380Z,90.63
2022-12-17T05:57:50.486Z,90.23
2022-12-17T06:00:14.089Z,90.32
2022-12-17T06:02:35.143Z,89.59
2022-12-17T06:05:01.969Z,89.76
2022-12-17T06:07:25.006Z,90.37
2022-12-17T06:09:46.103Z,89.92
2022-12-17T06:12:07.125Z,90.30
2022-12-17T06:14:28.392Z,90.17
2022-12-17T06:16:49.362Z,90.02
2022-12-17T06:19:10.645Z,90.07
2022-12-17T06:21:31.571Z,90.31
2022-12-17T06:23:52.588Z,89.87
2022-12-17T06:26:15.088Z,89.91
2022-12-17T06:28:36.266Z,90.17
2022-12-17T06:30:57.478Z,90.07
2022-12-17T06:33:24.120Z,89.79
2022-12-17T06:35:46.351Z,89.80
2022-12-17T06:38:07.400Z,89.35
2022-12-17T06:40:29.123Z,89.70
2022-12-17T06:42:50.039Z,89.76
2022-12-17T06:45:11.062Z,89.19
2022-12-17T06:47:32.068Z,88.89
2022-12-17T06:49:57.966Z,88.43
2022-12-17T06:52:22.206Z,88.64
2022-12-17T06:54:43.498Z,88.47
2022-12-17T06:57:04.433Z,88.49
2022-12-17T06:59:25.827Z,88.04
2022-12-17T07:01:48.050Z,88.23
2022-12-17T07:04:09.399Z,88.18
2022-12-17T07:09:45.014Z,87.86
2022-12-17T07:12:06.077Z,87.83
2022-12-17T07:14:26.997Z,87.98
2022-12-17T07:16:48.044Z,87.84
2022-12-17T07:19:09.296Z,88.05
2022-12-17T07:21:30.201Z,88.96
2022-12-17T07:23:51.535Z,88.97
2022-12-17T07:26:12.812Z,88.67
2022-12-17T07:28:34.119Z,88.39
2022-12-17T07:30:55.931Z,89.25
2022-12-17T07:33:21.113Z,88.76
2022-12-17T07:35:42.454Z,88.71
2022-12-17T07:38:03.393Z,88.86
2022-12-17T07:40:25.200Z,88.68
2022-12-17T07:42:46.201Z,88.33
2022-12-17T07:45:07.204Z,88.51
2022-12-17T07:47:28.125Z,88.87
2022-12-17T07:49:49.065Z,88.99
2022-12-17T07:52:10.352Z,88.07
2022-12-17T07:54:31.475Z,88.79
2022-12-17T07:56:52.603Z,88.92
2022-12-17T07:59:13.906Z,89.07
2022-12-17T08:01:35.548Z,88.18
2022-12-17T08:03:56.982Z,87.64
2022-12-17T08:06:18.535Z,87.39
2022-12-17T08:08:39.424Z,87.75
2022-12-17T08:11:07.544Z,87.80
2022-12-17T08:13:28.440Z,87.07
2022-12-17T08:15:50.980Z,86.82
2022-12-17T08:18:22.925Z,86.51
2022-12-17T08:20:47.493Z,86.36
2022-12-17T08:23:08.565Z,86.31
2022-12-17T08:25:30.135Z,86.16
2022-12-17T08:27:51.057Z,85.78
2022-12-17T08:30:12.104Z,86.09
2022-12-17T08:32:33.569Z,85.40
2022-12-17T08:34:54.834Z,85.26
2022-12-17T08:37:15.924Z,86.15
2022-12-17T08:39:36.828Z,85.51
2022-12-17T08:42:03.934Z,85.06
2022-12-17T08:44:25.735Z,84.33
2022-12-17T08:47:00.614Z,84.52
2022-12-17T08:49:22.142Z,84.85
2022-12-17T08:51:44.333Z,84.28
2022-12-17T08:54:05.603Z,85.14
2022-12-17T08:56:26.617Z,85.02
2022-12-17T08:58:47.859Z,84.32
2022-12-17T09:01:10.798Z,83.99
2022-12-17T09:03:31.903Z,84.79
2022-12-17T09:05:53.314Z,84.35
2022-12-17T09:08:22.538Z,84.77
2022-12-17T09:10:43.541Z,84.15
2022-12-17T09:13:05.296Z,84.78
2022-12-17T09:15:26.908Z,85.01
2022-12-17T09:17:48.073Z,84.90
2022-12-17T09:20:09.253Z,84.62
2022-12-17T09:22:30.366Z,84.45
2022-12-17T09:24:51.598Z,85.01
2022-12-17T09:27:12.720Z,85.13
2022-12-17T09:29:33.737Z,84.82
2022-12-17T09:31:54.931Z,84.78
2022-12-17T09:34:16.077Z,85.36
2022-12-17T09:36:37.282Z,84.94
2022-12-17T09:38:58.465Z,84.83
2022-12-17T09:41:46.412Z,84.91
2022-12-17T09:44:21.765Z,85.46
2022-12-17T09:46:45.831Z,84.67
2022-12-17T09:49:12.850Z,85.85
2022-12-17T09:51:45.976Z,85.34
2022-12-17T09:54:12.134Z,85.24
2022-12-17T09:56:34.438Z,85.58
2022-12-17T09:58:58.129Z,85.88
2022-12-17T10:01:23.634Z,86.65
2022-12-17T10:03:45.871Z,86.75
2022-12-17T10:06:08.475Z,87.52
2022-12-17T10:08:37.084Z,88.00
2022-12-17T10:11:03.657Z,87.64
2022-12-17T10:13:36.170Z,87.73
2022-12-17T10:16:00.447Z,87.40
2022-12-17T10:18:45.985Z,87.71
2022-12-17T10:21:15.541Z,88.21
2022-12-17T10:23:50.620Z,88.27
2022-12-17T10:26:14.131Z,88.48
2022-12-17T10:28:41.321Z,88.29
2022-12-17T10:31:02.414Z,88.86
2022-12-17T10:33:40.039Z,89.32
2022-12-17T10:36:01.354Z,89.17
2022-12-17T10:38:46.637Z,89.46
2022-12-17T10:41:07.613Z,89.36
2022-12-17T10:43:53.850Z,89.74
2022-12-17T10:46:16.368Z,89.97
2022-12-17T10:48:50.345Z,90.23
2022-12-17T10:51:12.524Z,90.08
2022-12-17T10:53:52.262Z,90.25
2022-12-17T10:56:16.368Z,90.33
2022-12-17T10:58:48.055Z,90.09
2022-12-17T11:01:17.877Z,90.37
2022-12-17T11:03:44.795Z,90.38
2022-12-17T11:06:10.501Z,91.05
2022-12-17T11:08:34.898Z,90.06
2022-12-17T11:11:02.007Z,90.40
2022-12-17T11:13:29.458Z,90.84
2022-12-17T11:16:06.088Z,91.30
2022-12-17T11:18:36.434Z,91.44
2022-12-17T11:21:14.271Z,90.86
2022-12-17T11:23:38.406Z,91.55
2022-12-17T11:26:24.003Z,92.13
2022-12-17T11:28:51.015Z,92.08
2022-12-17T11:31:21.781Z,92.32
2022-12-17T11:33:56.267Z,92.47
2022-12-17T11:36:51.496Z,92.24
2022-12-17T11:39:24.604Z,92.40
2022-12-17T11:41:57.809Z,92.70
2022-12-17T11:44:49.599Z,92.89
2022-12-17T11:47:13.586Z,93.46
2022-12-17T11:49:56.429Z,93.48
2022-12-17T11:52:29.329Z,93.97
2022-12-17T11:55:02.403Z,94.16
2022-12-17T11:57:42.905Z,94.58
2022-12-17T12:00:04.500Z,94.75
2022-12-17T12:03:07.788Z,95.05
2022-12-17T12:05:34.845Z,94.89
2022-12-17T12:08:21.233Z,95.02
2022-12-17T12:11:10.349Z,95.41
2022-12-17T12:13:58.572Z,95.63
2022-12-17T12:16:42.066Z,96.06
2022-12-17T12:19:13.545Z,96.03
2022-12-17T12:21:57.993Z,96.30
2022-12-17T12:24:40.877Z,96.05
2022-12-17T12:27:39.140Z,96.04
2022-12-17T12:30:08.989Z,96.40
2022-12-17T12:32:47.192Z,96.52
2022-12-17T12:35:11.253Z,97.21
2022-12-17T12:37:35.908Z,97.22
2022-12-17T12:40:02.610Z,97.39
2022-12-17T12:42:50.433Z,96.98
2022-12-17T12:45:46.683Z,97.41
2022-12-17T12:48:43.307Z,97.29
2022-12-17T12:51:11.831Z,97.62
2022-12-17T12:53:33.938Z,97.65
2022-12-17T12:56:01.724Z,98.14
2022-12-17T12:58:50.807Z,98.02
2022-12-17T13:01:15.988Z,98.38
2022-12-17T13:03:55.491Z,97.94
2022-12-17T13:05:58.340Z,97.93
2022-12-17T13:08:25.365Z,98.43
2022-12-17T13:10:30.706Z,97.90
2022-12-17T13:12:49.557Z,98.44
2022-12-17T13:15:07.280Z,98.80
2022-12-17T13:17:18.803Z,98.08
2022-12-17T13:19:36.706Z,98.21
2022-12-17T13:21:39.291Z,98.60
2022-12-17T13:23:42.236Z,98.53
2022-12-17T13:25:44.964Z,98.60
2022-12-17T13:27:48.676Z,98.67
2022-12-17T13:29:51.291Z,98.97
2022-12-17T13:32:17.258Z,99.05
2022-12-17T13:34:37.811Z,98.99
2022-12-17T13:36:57.942Z,99.15
2022-12-17T13:39:06.273Z,99.32
2022-12-17T13:41:14.626Z,98.82
2022-12-17T13:43:20.153Z,98.87
2022-12-17T13:45:26.077Z,99.27
2022-12-17T13:47:31.891Z,99.17
2022-12-17T13:49:34.494Z,99.32
2022-12-17T13:51:37.301Z,99.10
2022-12-17T13:53:39.836Z,99.42
2022-12-17T13:55:51.316Z,99.17
2022-12-17T13:57:54.408Z,99.11
2022-12-17T14:00:02.660Z,99.10
2022-12-17T14:02:22.933Z,98.93
2022-12-17T14:04:28.035Z,98.87
2022-12-17T14:06:36.922Z,99.04
2022-12-17T14:08:40.782Z,98.91
2022-12-17T14:11:15.167Z,98.89
2022-12-17T14:13:18.396Z,99.17
2022-12-17T14:15:32.285Z,99.05
2022-12-17T14:17:41.672Z,99.57
2022-12-17T14:19:44.497Z,99.73
2022-12-17T14:21:47.671Z,99.37
2022-12-17T14:23:52.196Z,99.49
2022-12-17T14:25:55.049Z,99.19
2022-12-17T14:28:03.792Z,99.24
2022-12-17T14:30:22.539Z,99.44
2022-12-17T14:32:37.596Z,99.71
2022-12-17T14:34:43.311Z,99.41
2022-12-17T14:36:47.035Z,99.41
2022-12-17T14:38:57.042Z,99.46
2022-12-17T14:41:32.805Z,99.24
2022-12-17T14:43:35.449Z,99.01
2022-12-17T14:45:58.085Z,99.04
2022-12-17T14:48:04.460Z,99.53
2022-12-17T14:50:23.947Z,99.54
2022-12-17T14:52:57.519Z,99.61
2022-12-17T14:55:00.561Z,99.28
2022-12-17T14:57:06.209Z,99.25
2022-12-17T14:59:38.205Z,99.15
2022-12-17T15:01:40.898Z,98.84
2022-12-17T15:03:48.766Z,99.25
2022-12-17T15:06:07.372Z,98.85
2022-12-17T15:08:11.731Z,99.37
2022-12-17T15:10:19.132Z,99.35
2022-12-17T15:12:23.586Z,99.43
2022-12-17T15:14:26.192Z,99.21
2022-12-17T15:16:29.283Z,99.33
2022-12-17T15:18:32.995Z,99.01
2022-12-17T15:20:36.347Z,99.35
2022-12-17T15:22:39.281Z,99.16
2022-12-17T15:24:42.237Z,99.02
2022-12-17T15:26:45.096Z,98.91
2022-12-17T15:28:47.856Z,99.27
2022-12-17T15:30:50.688Z,99.13
2022-12-17T15:32:53.370Z,99.08
2022-12-17T15:34:57.093Z,99.13
2022-12-17T15:36:59.764Z,99.18
2022-12-17T15:39:02.452Z,98.92
2022-12-17T15:41:26.510Z,98.91
2022-12-17T15:43:30.414Z,99.62
2022-12-17T15:45:33.410Z,100.00
2022-12-17T15:47:36.449Z,99.78
2022-12-17T15:49:39.150Z,99.69
2022-12-17T15:51:41.715Z,99.57
2022-12-17T15:53:44.289Z,100.00
2022-12-17T15:55:46.891Z,99.53
2022-12-17T15:57:49.430Z,98.84
2022-12-17T15:59:52.211Z,98.57
2022-12-17T16:01:54.839Z,98.95
2022-12-17T16:03:58.044Z,98.98
2022-12-17T16:06:01.895Z,98.97
2022-12-17T16:08:04.695Z,99.14
2022-12-17T16:10:07.537Z,99.26
2022-12-17T16:12:10.402Z,99.27
2022-12-17T16:14:13.070Z,99.39
2022-12-17T16:16:15.876Z,99.68
2022-12-17T16:18:18.512Z,99.54
2022-12-17T16:20:21.093Z,99.78
2022-12-17T16:22:23.890Z,99.67
2022-12-17T16:24:26.945Z,100.00
2022-12-17T16:26:29.527Z,99.67
2022-12-17T16:28:32.962Z,100.00
2022-12-17T16:30:35.576Z,99.86
2022-12-17T16:32:38.744Z,99.96
2022-12-17T16:34:44.134Z,99.92
2022-12-17T16:36:46.757Z,100.00
2022-12-17T16:38:52.900Z,99.78
2022-12-17T16:41:00.092Z,100.00
2022-12-17T16:43:02.723Z,100.00
2022-12-17T16:45:06.160Z,100.00
2022-12-17T16:47:10.462Z,100.00
2022-12-17T16:49:18.556Z,100.00
2022-12-17T16:51:28.547Z,100.00
2022-12-17T16:53:32.034Z,99.95
2022-12-17T16:55:41.001Z,100.00
2022-12-17T16:57:43.538Z,99.89
2022-12-17T16:59:46.168Z,100.00
2022-12-17T17:01:50.689Z,100.00
2022-12-17T17:03:53.713Z,100.00
2022-12-17T17:06:01.118Z,100.00
2022-12-17T17:08:04.713Z,99.99
2022-12-17T17:10:07.512Z,100.00
2022-12-17T17:12:12.043Z,100.00
2022-12-17T17:14:14.757Z,100.00
2022-12-17T17:16:19.446Z,100.00
2022-12-17T17:18:24.749Z,100.00
2022-12-17T17:20:27.724Z,100.00
2022-12-17T17:22:30.250Z,100.00
2022-12-17T17:24:32.812Z,100.00
2022-12-17T17:26:35.973Z,100.00
2022-12-17T17:28:39.116Z,100.00
2022-12-17T17:30:42.264Z,100.00
2022-12-17T17:32:44.970Z,100.00
2022-12-17T17:34:47.622Z,100.00
2022-12-17T17:36:50.173Z,100.00
2022-12-17T17:38:57.182Z,100.00
2022-12-17T17:40:59.762Z,100.00
2022-12-17T17:43:02.339Z,100.00
2022-12-17T17:45:05.167Z,100.00
2022-12-17T17:47:08.026Z,100.00
2022-12-17T17:49:12.000Z,100.00
2022-12-17T17:51:39.032Z,100.00
2022-12-17T17:53:48.055Z,100.00
2022-12-17T17:55:50.532Z,100.00
2022-12-17T17:57:53.228Z,100.00
2022-12-17T17:59:55.864Z,100.00
2022-12-17T18:01:58.513Z,100.00
2022-12-17T18:04:06.010Z,100.00
2022-12-17T18:06:11.625Z,100.00
2022-12-17T18:08:15.405Z,100.00
2022-12-17T18:10:18.065Z,100.00
2022-12-17T18:12:39.351Z,100.00
2022-12-17T18:14:46.670Z,100.00
2022-12-17T18:17:00.558Z,100.00
2022-12-17T18:19:20.501Z,100.00
2022-12-17T18:21:24.191Z,100.00
2022-12-17T18:23:26.867Z,100.00
2022-12-17T18:25:32.886Z,100.00
2022-12-17T18:27:40.303Z,100.00
2022-12-17T18:29:42.940Z,100.00
2022-12-17T18:31:51.536Z,100.00
2022-12-17T18:33:58.903Z,100.00
2022-12-17T18:36:01.461Z,100.00
2022-12-17T18:38:04.146Z,100.00
2022-12-17T18:40:07.829Z,100.00
2022-12-17T18:42:28.789Z,100.00
2022-12-17T18:44:32.455Z,100.00
2022-12-17T18:46:35.822Z,100.00
2022-12-17T18:48:38.863Z,100.00
2022-12-17T18:50:41.787Z,100.00
2022-12-17T18:52:44.350Z,100.00
2022-12-17T18:54:46.871Z,100.00
2022-12-17T18:57:01.018Z,100.00
2022-12-17T18:59:04.983Z,100.00
2022-12-17T19:01:08.274Z,100.00
2022-12-17T19:03:11.241Z,100.00
2022-12-17T19:05:14.000Z,100.00
2022-12-17T19:07:16.552Z,100.00
2022-12-17T19:09:25.188Z,100.00
2022-12-17T19:11:28.397Z,100.00
2022-12-17T19:13:31.389Z,100.00
2022-12-17T19:15:36.069Z,100.00
2022-12-17T19:17:38.890Z,100.00
2022-12-17T19:19:41.422Z,100.00
2022-12-17T19:21:44.817Z,100.00
2022-12-17T19:23:48.587Z,100.00
2022-12-17T19:25:51.167Z,100.00
2022-12-17T19:27:53.913Z,100.00
2022-12-17T19:29:57.288Z,100.00
2022-12-17T19:32:00.610Z,100.00
2022-12-17T19:34:05.728Z,100.00
2022-12-17T19:36:14.181Z,100.00
2022-12-17T19:38:16.784Z,100.00
2022-12-17T19:40:19.420Z,100.00
2022-12-17T19:42:25.161Z,100.00
2022-12-17T19:44:27.934Z,100.00
2022-12-17T19:46:32.209Z,100.00
2022-12-17T19:48:37.215Z,100.00
2022-12-17T19:50:40.204Z,100.00
2022-12-17T19:52:42.764Z,100.00
2022-12-17T19:54:45.317Z,100.00
2022-12-17T19:56:47.924Z,100.00
2022-12-17T19:58:53.224Z,100.00
2022-12-17T20:00:55.841Z,100.00
2022-12-17T20:02:58.706Z,100.00
2022-12-17T20:05:01.337Z,100.00
2022-12-17T20:07:04.097Z,100.00
2022-12-17T20:09:07.451Z,100.00
2022-12-17T20:11:30.689Z,100.00
2022-12-17T20:13:33.217Z,100.00
2022-12-17T20:15:35.888Z,100.00
2022-12-17T20:17:38.487Z,100.00
2022-12-17T20:19:42.280Z,100.00
2022-12-17T20:21:44.869Z,100.00
2022-12-17T20:23:48.722Z,100.00
2022-12-17T20:26:01.934Z,100.00
2022-12-17T20:28:04.917Z,100.00
2022-12-17T20:30:08.092Z,100.00
2022-12-17T20:32:10.778Z,100.00
2022-12-17T20:34:15.982Z,100.00
2022-12-17T20:36:20.037Z,100.00
2022-12-17T20:38:23.024Z,100.00
2022-12-17T20:40:25.649Z,100.00
2022-12-17T20:42:28.197Z,100.00
2022-12-17T20:44:30.847Z,100.00
2022-12-17T20:46:34.224Z,100.00
2022-12-17T20:48:39.157Z,100.00
2022-12-17T20:50:42.007Z,100.00
2022-12-17T20:52:44.588Z,100.00
2022-12-17T20:54:47.169Z,100.00
2022-12-17T20:56:50.115Z,100.00
2022-12-17T20:58:54.979Z,100.00
2022-12-17T21:01:07.690Z,100.00
2022-12-17T21:03:10.742Z,100.00
2022-12-17T21:05:13.579Z,100.00
2022-12-17T21:07:16.170Z,100.00
2022-12-17T21:09:20.501Z,100.00
2022-12-17T21:11:26.076Z,100.00
2022-12-17T21:13:31.755Z,100.00
2022-12-17T21:15:34.346Z,100.00
2022-12-17T21:17:36.867Z,100.00
2022-12-17T21:19:39.382Z,100.00
2022-12-17T21:21:42.248Z,100.00
2022-12-17T21:23:45.588Z,100.00
2022-12-17T21:25:48.361Z,100.00
2022-12-17T21:27:51.074Z,100.00
2022-12-17T21:29:53.993Z,100.00
2022-12-17T21:31:56.652Z,100.00
2022-12-17T21:34:03.160Z,100.00
2022-12-17T21:36:07.899Z,100.00
2022-12-17T21:38:10.943Z,100.00
2022-12-17T21:40:13.737Z,100.00
2022-12-17T21:42:35.002Z,100.00
2022-12-17T21:44:37.718Z,100.00
2022-12-17T21:46:40.892Z,100.00
2022-12-17T21:48:44.077Z,100.00
2022-12-17T21:50:47.087Z,100.00
2022-12-17T21:52:50.211Z,100.00
2022-12-17T21:54:52.864Z,100.00
2022-12-17T21:56:55.445Z,100.00
2022-12-17T21:59:00.356Z,100.00
2022-12-17T22:01:19.109Z,100.00
2022-12-17T22:03:22.265Z,100.00
2022-12-17T22:05:24.886Z,100.00
2022-12-17T22:07:32.028Z,100.00
2022-12-17T22:09:42.502Z,100.00
2022-12-17T22:12:20.205Z,100.00
2022-12-17T22:14:22.858Z,100.00
2022-12-17T22:16:27.354Z,100.00
2022-12-17T22:18:29.931Z,100.00
2022-12-17T22:20:32.525Z,100.00
2022-12-17T22:22:35.215Z,100.00
2022-12-17T22:24:38.047Z,100.00
2022-12-17T22:26:40.795Z,100.00
2022-12-17T22:28:48.580Z,100.00
2022-12-17T22:31:09.897Z,100.00
2022-12-17T22:33:38.308Z,100.00
2022-12-17T22:37:34.843Z,100.00
2022-12-17T22:40:50.083Z,100.00
2022-12-17T22:44:35.586Z,100.00
2022-12-17T22:44:37.804Z,100.00
2022-12-17T22:45:27.605Z,100.00
2022-12-17T22:47:30.228Z,100.00
2022-12-17T22:49:32.854Z,100.00
2022-12-17T22:51:39.032Z,100.00
2022-12-17T22:53:43.403Z,100.00
2022-12-17T22:55:46.221Z,100.00
2022-12-17T22:57:48.880Z,100.00
2022-12-17T22:59:51.513Z,100.00
2022-12-17T23:01:54.321Z,100.00
2022-12-17T23:03:58.829Z,100.00
2022-12-17T23:06:13.629Z,100.00
2022-12-17T23:08:16.254Z,100.00
2022-12-17T23:10:20.091Z,100.00
2022-12-17T23:12:41.240Z,100.00
2022-12-17T23:14:43.925Z,100.00
2022-12-17T23:16:46.580Z,100.00
2022-12-17T23:18:50.897Z,100.00
2022-12-17T23:20:53.587Z,100.00
2022-12-17T23:22:57.011Z,100.00
2022-12-17T23:24:59.626Z,100.00
2022-12-17T23:27:02.195Z,100.00
2022-12-17T23:29:08.061Z,100.00
2022-12-17T23:31:13.213Z,100.00
2022-12-17T23:33:15.914Z,100.00
2022-12-17T23:35:18.755Z,100.00
2022-12-17T23:37:21.281Z,100.00
2022-12-17T23:39:24.021Z,100.00
2022-12-17T23:41:29.304Z,100.00
2022-12-17T23:43:33.072Z,100.00
2022-12-17T23:45:35.594Z,100.00
2022-12-17T23:47:39.095Z,100.00
2022-12-17T23:49:41.651Z,100.00
2022-12-17T23:51:44.233Z,100.00
2022-12-17T23:53:47.625Z,100.00
2022-12-17T23:55:51.143Z,100.00
2022-12-17T23:57:56.766Z,100.00
2022-12-17T23:59:59.385Z,100.00
